sensor_id;sensor_type;location;lat;lon;timestamp;P1;durP1;ratioP1;P2;durP2;ratioP2
47429;SDS011;33181;49.246;7.372;2023-06-14T00:00:58;8.93;;;7.47;;
47429;SDS011;33181;49.246;7.372;2023-06-14T00:03:24;7.73;;;6.93;;
47429;SDS011;33181;49.246;7.372;2023-06-14T00:05:51;8.60;;;6.43;;
47429;SDS011;33181;49.246;7.372;2023-06-14T00:08:19;10.10;;;6.53;;
47429;SDS011;33181;49.246;7.372;2023-06-14T00:10:46;8.57;;;7.17;;
47429;SDS011;33181;49.246;7.372;2023-06-14T00:13:12;13.50;;;7.17;;
47429;SDS011;33181;49.246;7.372;2023-06-14T00:15:39;8.13;;;7.10;;
47429;SDS011;33181;49.246;7.372;2023-06-14T00:18:05;7.57;;;6.80;;
47429;SDS011;33181;49.246;7.372;2023-06-14T00:20:32;8.17;;;7.10;;
47429;SDS011;33181;49.246;7.372;2023-06-14T00:22:59;9.17;;;6.90;;
47429;SDS011;33181;49.246;7.372;2023-06-14T00:25:25;8.10;;;6.60;;
47429;SDS011;33181;49.246;7.372;2023-06-14T00:27:52;7.30;;;6.50;;
47429;SDS011;33181;49.246;7.372;2023-06-14T00:30:19;9.07;;;7.90;;
47429;SDS011;33181;49.246;7.372;2023-06-14T00:32:46;7.70;;;6.83;;
47429;SDS011;33181;49.246;7.372;2023-06-14T00:35:13;10.03;;;6.80;;
47429;SDS011;33181;49.246;7.372;2023-06-14T00:37:39;7.43;;;6.53;;
47429;SDS011;33181;49.246;7.372;2023-06-14T00:40:05;12.53;;;7.30;;
47429;SDS011;33181;49.246;7.372;2023-06-14T00:42:32;9.97;;;7.07;;
47429;SDS011;33181;49.246;7.372;2023-06-14T00:44:59;7.80;;;6.50;;
47429;SDS011;33181;49.246;7.372;2023-06-14T00:47:25;7.60;;;6.80;;
47429;SDS011;33181;49.246;7.372;2023-06-14T00:49:52;7.37;;;6.50;;
47429;SDS011;33181;49.246;7.372;2023-06-14T00:52:20;9.27;;;7.50;;
47429;SDS011;33181;49.246;7.372;2023-06-14T00:54:49;9.73;;;6.70;;
47429;SDS011;33181;49.246;7.372;2023-06-14T00:57:15;9.20;;;7.37;;
47429;SDS011;33181;49.246;7.372;2023-06-14T00:59:45;8.70;;;7.00;;
47429;SDS011;33181;49.246;7.372;2023-06-14T01:02:14;7.13;;;6.37;;
47429;SDS011;33181;49.246;7.372;2023-06-14T01:04:41;8.70;;;7.80;;
47429;SDS011;33181;49.246;7.372;2023-06-14T01:10:21;8.80;;;6.80;;
47429;SDS011;33181;49.246;7.372;2023-06-14T01:13:37;9.60;;;7.00;;
47429;SDS011;33181;49.246;7.372;2023-06-14T01:16:07;8.37;;;7.03;;
47429;SDS011;33181;49.246;7.372;2023-06-14T01:18:34;11.80;;;6.80;;
47429;SDS011;33181;49.246;7.372;2023-06-14T01:21:00;8.17;;;7.37;;
47429;SDS011;33181;49.246;7.372;2023-06-14T01:23:30;10.50;;;7.43;;
47429;SDS011;33181;49.246;7.372;2023-06-14T01:25:58;9.07;;;7.53;;
47429;SDS011;33181;49.246;7.372;2023-06-14T01:28:25;10.10;;;7.40;;
47429;SDS011;33181;49.246;7.372;2023-06-14T01:30:57;9.00;;;7.10;;
47429;SDS011;33181;49.246;7.372;2023-06-14T01:33:31;8.97;;;7.63;;
47429;SDS011;33181;49.246;7.372;2023-06-14T01:35:58;13.13;;;8.20;;
47429;SDS011;33181;49.246;7.372;2023-06-14T01:38:26;9.50;;;8.10;;
47429;SDS011;33181;49.246;7.372;2023-06-14T01:40:54;10.30;;;7.83;;
47429;SDS011;33181;49.246;7.372;2023-06-14T01:43:23;10.53;;;8.10;;
47429;SDS011;33181;49.246;7.372;2023-06-14T01:45:50;8.93;;;7.73;;
47429;SDS011;33181;49.246;7.372;2023-06-14T01:48:16;9.40;;;7.83;;
47429;SDS011;33181;49.246;7.372;2023-06-14T01:50:43;11.40;;;7.70;;
47429;SDS011;33181;49.246;7.372;2023-06-14T01:53:09;8.77;;;7.37;;
47429;SDS011;33181;49.246;7.372;2023-06-14T01:55:35;9.97;;;7.40;;
47429;SDS011;33181;49.246;7.372;2023-06-14T01:58:08;9.50;;;6.70;;
47429;SDS011;33181;49.246;7.372;2023-06-14T02:00:35;9.20;;;7.80;;
47429;SDS011;33181;49.246;7.372;2023-06-14T02:03:01;8.83;;;7.40;;
47429;SDS011;33181;49.246;7.372;2023-06-14T02:05:30;9.30;;;7.63;;
47429;SDS011;33181;49.246;7.372;2023-06-14T02:07:57;8.80;;;7.87;;
47429;SDS011;33181;49.246;7.372;2023-06-14T02:10:22;8.17;;;7.27;;
47429;SDS011;33181;49.246;7.372;2023-06-14T02:12:48;8.90;;;6.80;;
47429;SDS011;33181;49.246;7.372;2023-06-14T02:15:15;8.13;;;7.27;;
47429;SDS011;33181;49.246;7.372;2023-06-14T02:17:44;8.73;;;7.30;;
47429;SDS011;33181;49.246;7.372;2023-06-14T02:20:14;8.87;;;7.50;;
47429;SDS011;33181;49.246;7.372;2023-06-14T02:22:40;12.07;;;7.80;;
47429;SDS011;33181;49.246;7.372;2023-06-14T02:25:07;8.80;;;7.90;;
47429;SDS011;33181;49.246;7.372;2023-06-14T02:27:34;9.40;;;7.60;;
47429;SDS011;33181;49.246;7.372;2023-06-14T02:30:00;9.77;;;7.60;;
47429;SDS011;33181;49.246;7.372;2023-06-14T02:32:27;8.80;;;7.37;;
47429;SDS011;33181;49.246;7.372;2023-06-14T02:34:55;11.50;;;7.37;;
47429;SDS011;33181;49.246;7.372;2023-06-14T02:37:22;8.73;;;7.83;;
47429;SDS011;33181;49.246;7.372;2023-06-14T02:39:48;9.70;;;7.60;;
47429;SDS011;33181;49.246;7.372;2023-06-14T02:42:13;8.00;;;7.20;;
47429;SDS011;33181;49.246;7.372;2023-06-14T02:44:39;9.90;;;7.77;;
47429;SDS011;33181;49.246;7.372;2023-06-14T02:47:05;9.63;;;7.53;;
47429;SDS011;33181;49.246;7.372;2023-06-14T02:49:31;9.00;;;7.23;;
47429;SDS011;33181;49.246;7.372;2023-06-14T02:51:57;7.83;;;7.03;;
47429;SDS011;33181;49.246;7.372;2023-06-14T02:54:23;9.33;;;8.33;;
47429;SDS011;33181;49.246;7.372;2023-06-14T02:56:48;12.10;;;7.90;;
47429;SDS011;33181;49.246;7.372;2023-06-14T02:59:15;10.03;;;7.97;;
47429;SDS011;33181;49.246;7.372;2023-06-14T03:01:42;9.03;;;7.33;;
47429;SDS011;33181;49.246;7.372;2023-06-14T03:04:08;10.20;;;7.40;;
47429;SDS011;33181;49.246;7.372;2023-06-14T03:06:34;13.50;;;8.00;;
47429;SDS011;33181;49.246;7.372;2023-06-14T03:09:01;7.97;;;7.17;;
47429;SDS011;33181;49.246;7.372;2023-06-14T03:11:30;12.27;;;7.73;;
47429;SDS011;33181;49.246;7.372;2023-06-14T03:13:57;8.83;;;7.73;;
47429;SDS011;33181;49.246;7.372;2023-06-14T03:16:23;8.70;;;7.80;;
47429;SDS011;33181;49.246;7.372;2023-06-14T03:18:52;8.97;;;7.87;;
47429;SDS011;33181;49.246;7.372;2023-06-14T03:21:18;9.50;;;7.50;;
47429;SDS011;33181;49.246;7.372;2023-06-14T03:23:48;9.87;;;7.50;;
47429;SDS011;33181;49.246;7.372;2023-06-14T03:26:14;12.40;;;8.03;;
47429;SDS011;33181;49.246;7.372;2023-06-14T03:28:46;10.40;;;7.97;;
47429;SDS011;33181;49.246;7.372;2023-06-14T03:31:14;11.50;;;7.77;;
47429;SDS011;33181;49.246;7.372;2023-06-14T03:33:41;11.13;;;7.50;;
47429;SDS011;33181;49.246;7.372;2023-06-14T03:36:07;12.37;;;8.50;;
47429;SDS011;33181;49.246;7.372;2023-06-14T03:38:33;8.20;;;7.40;;
47429;SDS011;33181;49.246;7.372;2023-06-14T03:40:59;9.90;;;7.93;;
47429;SDS011;33181;49.246;7.372;2023-06-14T03:43:25;9.30;;;8.20;;
47429;SDS011;33181;49.246;7.372;2023-06-14T03:45:52;10.30;;;8.20;;
47429;SDS011;33181;49.246;7.372;2023-06-14T03:48:18;8.50;;;7.70;;
47429;SDS011;33181;49.246;7.372;2023-06-14T03:50:44;9.63;;;8.17;;
47429;SDS011;33181;49.246;7.372;2023-06-14T03:53:10;9.90;;;7.67;;
47429;SDS011;33181;49.246;7.372;2023-06-14T03:55:36;8.80;;;7.90;;
47429;SDS011;33181;49.246;7.372;2023-06-14T03:58:03;11.00;;;6.97;;
47429;SDS011;33181;49.246;7.372;2023-06-14T04:00:29;11.07;;;7.67;;
47429;SDS011;33181;49.246;7.372;2023-06-14T04:02:55;8.60;;;7.33;;
47429;SDS011;33181;49.246;7.372;2023-06-14T04:05:21;13.03;;;8.07;;
47429;SDS011;33181;49.246;7.372;2023-06-14T04:07:51;11.00;;;7.30;;
47429;SDS011;33181;49.246;7.372;2023-06-14T04:10:17;8.27;;;7.37;;
47429;SDS011;33181;49.246;7.372;2023-06-14T04:12:45;9.70;;;7.77;;
47429;SDS011;33181;49.246;7.372;2023-06-14T04:15:11;10.37;;;7.10;;
47429;SDS011;33181;49.246;7.372;2023-06-14T04:17:37;9.10;;;7.90;;
47429;SDS011;33181;49.246;7.372;2023-06-14T04:20:04;10.03;;;7.80;;
47429;SDS011;33181;49.246;7.372;2023-06-14T04:22:32;12.60;;;7.90;;
47429;SDS011;33181;49.246;7.372;2023-06-14T04:24:59;12.27;;;8.97;;
47429;SDS011;33181;49.246;7.372;2023-06-14T04:27:26;11.70;;;8.57;;
47429;SDS011;33181;49.246;7.372;2023-06-14T04:29:52;8.70;;;7.13;;
47429;SDS011;33181;49.246;7.372;2023-06-14T04:32:28;9.20;;;7.53;;
47429;SDS011;33181;49.246;7.372;2023-06-14T04:35:03;9.23;;;7.23;;
47429;SDS011;33181;49.246;7.372;2023-06-14T04:37:31;9.00;;;7.57;;
47429;SDS011;33181;49.246;7.372;2023-06-14T04:39:58;8.67;;;7.20;;
47429;SDS011;33181;49.246;7.372;2023-06-14T04:42:24;10.70;;;7.47;;
47429;SDS011;33181;49.246;7.372;2023-06-14T04:44:55;9.07;;;7.73;;
47429;SDS011;33181;49.246;7.372;2023-06-14T04:47:22;10.40;;;7.90;;
47429;SDS011;33181;49.246;7.372;2023-06-14T04:49:54;10.00;;;7.77;;
47429;SDS011;33181;49.246;7.372;2023-06-14T04:52:22;10.47;;;7.60;;
47429;SDS011;33181;49.246;7.372;2023-06-14T04:54:48;8.97;;;7.53;;
47429;SDS011;33181;49.246;7.372;2023-06-14T04:57:14;10.40;;;8.83;;
47429;SDS011;33181;49.246;7.372;2023-06-14T04:59:42;9.53;;;7.23;;
47429;SDS011;33181;49.246;7.372;2023-06-14T05:02:09;11.70;;;8.17;;
47429;SDS011;33181;49.246;7.372;2023-06-14T05:04:36;10.03;;;8.33;;
47429;SDS011;33181;49.246;7.372;2023-06-14T05:07:07;9.70;;;7.77;;
47429;SDS011;33181;49.246;7.372;2023-06-14T05:09:34;8.20;;;7.20;;
47429;SDS011;33181;49.246;7.372;2023-06-14T05:12:01;8.60;;;7.63;;
47429;SDS011;33181;49.246;7.372;2023-06-14T05:14:28;9.67;;;8.00;;
47429;SDS011;33181;49.246;7.372;2023-06-14T05:16:53;9.93;;;7.80;;
47429;SDS011;33181;49.246;7.372;2023-06-14T05:19:19;11.47;;;8.57;;
47429;SDS011;33181;49.246;7.372;2023-06-14T05:21:47;11.80;;;8.73;;
47429;SDS011;33181;49.246;7.372;2023-06-14T05:24:13;9.37;;;7.97;;
47429;SDS011;33181;49.246;7.372;2023-06-14T05:26:39;9.53;;;8.10;;
47429;SDS011;33181;49.246;7.372;2023-06-14T05:29:06;11.70;;;8.53;;
47429;SDS011;33181;49.246;7.372;2023-06-14T05:31:32;10.93;;;8.20;;
47429;SDS011;33181;49.246;7.372;2023-06-14T05:33:58;11.80;;;8.27;;
47429;SDS011;33181;49.246;7.372;2023-06-14T05:36:24;13.67;;;8.60;;
47429;SDS011;33181;49.246;7.372;2023-06-14T05:38:50;9.33;;;8.23;;
47429;SDS011;33181;49.246;7.372;2023-06-14T05:41:16;10.00;;;7.80;;
47429;SDS011;33181;49.246;7.372;2023-06-14T05:43:42;13.33;;;8.63;;
47429;SDS011;33181;49.246;7.372;2023-06-14T05:46:08;13.60;;;7.93;;
47429;SDS011;33181;49.246;7.372;2023-06-14T05:48:33;10.47;;;8.10;;
47429;SDS011;33181;49.246;7.372;2023-06-14T05:51:02;12.07;;;8.70;;
47429;SDS011;33181;49.246;7.372;2023-06-14T05:53:28;12.27;;;9.33;;
47429;SDS011;33181;49.246;7.372;2023-06-14T05:55:54;9.87;;;7.87;;
47429;SDS011;33181;49.246;7.372;2023-06-14T05:58:21;8.77;;;7.67;;
47429;SDS011;33181;49.246;7.372;2023-06-14T06:00:48;9.83;;;7.63;;
47429;SDS011;33181;49.246;7.372;2023-06-14T06:03:14;9.03;;;7.63;;
47429;SDS011;33181;49.246;7.372;2023-06-14T06:05:40;12.23;;;8.20;;
47429;SDS011;33181;49.246;7.372;2023-06-14T06:08:05;13.57;;;8.67;;
47429;SDS011;33181;49.246;7.372;2023-06-14T06:10:32;8.83;;;7.93;;
47429;SDS011;33181;49.246;7.372;2023-06-14T06:12:58;14.93;;;8.37;;
47429;SDS011;33181;49.246;7.372;2023-06-14T06:15:26;9.90;;;8.23;;
47429;SDS011;33181;49.246;7.372;2023-06-14T06:17:52;11.50;;;8.10;;
47429;SDS011;33181;49.246;7.372;2023-06-14T06:20:20;11.03;;;7.10;;
47429;SDS011;33181;49.246;7.372;2023-06-14T06:22:52;13.30;;;7.40;;
47429;SDS011;33181;49.246;7.372;2023-06-14T06:25:18;14.30;;;8.23;;
47429;SDS011;33181;49.246;7.372;2023-06-14T06:27:45;15.77;;;8.27;;
47429;SDS011;33181;49.246;7.372;2023-06-14T06:30:11;9.67;;;7.40;;
47429;SDS011;33181;49.246;7.372;2023-06-14T06:32:40;13.30;;;7.43;;
47429;SDS011;33181;49.246;7.372;2023-06-14T06:35:07;13.10;;;8.27;;
47429;SDS011;33181;49.246;7.372;2023-06-14T06:37:36;13.67;;;7.90;;
47429;SDS011;33181;49.246;7.372;2023-06-14T06:40:02;7.97;;;7.13;;
47429;SDS011;33181;49.246;7.372;2023-06-14T06:42:30;12.60;;;8.27;;
47429;SDS011;33181;49.246;7.372;2023-06-14T06:44:57;14.97;;;7.53;;
47429;SDS011;33181;49.246;7.372;2023-06-14T06:47:23;9.37;;;7.90;;
47429;SDS011;33181;49.246;7.372;2023-06-14T06:49:50;10.63;;;7.47;;
47429;SDS011;33181;49.246;7.372;2023-06-14T06:52:16;10.93;;;7.80;;
47429;SDS011;33181;49.246;7.372;2023-06-14T06:54:42;10.20;;;7.80;;
47429;SDS011;33181;49.246;7.372;2023-06-14T06:57:08;9.23;;;7.70;;
47429;SDS011;33181;49.246;7.372;2023-06-14T06:59:34;9.20;;;7.83;;
47429;SDS011;33181;49.246;7.372;2023-06-14T07:02:00;10.13;;;8.00;;
47429;SDS011;33181;49.246;7.372;2023-06-14T07:04:26;9.27;;;7.30;;
47429;SDS011;33181;49.246;7.372;2023-06-14T07:06:52;9.57;;;7.13;;
47429;SDS011;33181;49.246;7.372;2023-06-14T07:09:18;10.43;;;8.17;;
47429;SDS011;33181;49.246;7.372;2023-06-14T07:11:46;13.03;;;7.23;;
47429;SDS011;33181;49.246;7.372;2023-06-14T07:14:12;9.83;;;7.17;;
47429;SDS011;33181;49.246;7.372;2023-06-14T07:16:38;10.90;;;8.30;;
47429;SDS011;33181;49.246;7.372;2023-06-14T07:19:05;10.67;;;7.50;;
47429;SDS011;33181;49.246;7.372;2023-06-14T07:21:31;7.63;;;6.93;;
47429;SDS011;33181;49.246;7.372;2023-06-14T07:23:58;10.70;;;7.50;;
47429;SDS011;33181;49.246;7.372;2023-06-14T07:26:24;8.50;;;7.00;;
47429;SDS011;33181;49.246;7.372;2023-06-14T07:28:50;10.97;;;7.40;;
47429;SDS011;33181;49.246;7.372;2023-06-14T07:31:16;9.23;;;7.40;;
47429;SDS011;33181;49.246;7.372;2023-06-14T07:33:44;11.00;;;7.20;;
47429;SDS011;33181;49.246;7.372;2023-06-14T07:36:10;8.67;;;7.27;;
47429;SDS011;33181;49.246;7.372;2023-06-14T07:38:36;9.50;;;7.13;;
47429;SDS011;33181;49.246;7.372;2023-06-14T07:41:02;10.43;;;7.60;;
47429;SDS011;33181;49.246;7.372;2023-06-14T07:43:28;10.67;;;7.53;;
47429;SDS011;33181;49.246;7.372;2023-06-14T07:45:54;10.50;;;7.50;;
47429;SDS011;33181;49.246;7.372;2023-06-14T07:48:21;9.00;;;7.73;;
47429;SDS011;33181;49.246;7.372;2023-06-14T07:50:47;8.43;;;7.47;;
47429;SDS011;33181;49.246;7.372;2023-06-14T07:53:13;11.70;;;8.07;;
47429;SDS011;33181;49.246;7.372;2023-06-14T07:55:39;9.83;;;7.30;;
47429;SDS011;33181;49.246;7.372;2023-06-14T07:58:07;10.00;;;7.27;;
47429;SDS011;33181;49.246;7.372;2023-06-14T08:00:33;9.50;;;7.47;;
47429;SDS011;33181;49.246;7.372;2023-06-14T08:03:00;11.13;;;7.37;;
47429;SDS011;33181;49.246;7.372;2023-06-14T08:05:26;12.07;;;7.50;;
47429;SDS011;33181;49.246;7.372;2023-06-14T08:07:52;9.70;;;7.90;;
47429;SDS011;33181;49.246;7.372;2023-06-14T08:10:19;10.47;;;7.90;;
47429;SDS011;33181;49.246;7.372;2023-06-14T08:12:48;10.17;;;7.23;;
47429;SDS011;33181;49.246;7.372;2023-06-14T08:15:17;9.80;;;7.50;;
47429;SDS011;33181;49.246;7.372;2023-06-14T08:17:43;7.93;;;7.10;;
47429;SDS011;33181;49.246;7.372;2023-06-14T08:20:09;11.57;;;7.40;;
47429;SDS011;33181;49.246;7.372;2023-06-14T08:22:37;8.20;;;6.90;;
47429;SDS011;33181;49.246;7.372;2023-06-14T08:25:04;7.90;;;7.10;;
47429;SDS011;33181;49.246;7.372;2023-06-14T08:27:31;11.20;;;7.37;;
47429;SDS011;33181;49.246;7.372;2023-06-14T08:29:57;8.80;;;7.13;;
47429;SDS011;33181;49.246;7.372;2023-06-14T08:32:23;10.23;;;7.53;;
47429;SDS011;33181;49.246;7.372;2023-06-14T08:34:49;8.57;;;6.80;;
47429;SDS011;33181;49.246;7.372;2023-06-14T08:37:15;12.10;;;7.47;;
47429;SDS011;33181;49.246;7.372;2023-06-14T08:39:41;10.93;;;6.90;;
47429;SDS011;33181;49.246;7.372;2023-06-14T08:42:09;10.10;;;7.10;;
47429;SDS011;33181;49.246;7.372;2023-06-14T08:44:35;12.40;;;7.27;;
47429;SDS011;33181;49.246;7.372;2023-06-14T08:47:02;8.50;;;7.30;;
47429;SDS011;33181;49.246;7.372;2023-06-14T08:49:30;25.53;;;7.50;;
47429;SDS011;33181;49.246;7.372;2023-06-14T08:51:58;7.83;;;6.60;;
47429;SDS011;33181;49.246;7.372;2023-06-14T08:54:25;8.20;;;6.73;;
47429;SDS011;33181;49.246;7.372;2023-06-14T08:56:55;9.17;;;7.10;;
47429;SDS011;33181;49.246;7.372;2023-06-14T08:59:25;11.57;;;7.23;;
47429;SDS011;33181;49.246;7.372;2023-06-14T09:01:52;10.83;;;7.00;;
47429;SDS011;33181;49.246;7.372;2023-06-14T09:04:19;9.20;;;7.00;;
47429;SDS011;33181;49.246;7.372;2023-06-14T09:06:54;9.00;;;7.07;;
47429;SDS011;33181;49.246;7.372;2023-06-14T09:09:21;9.97;;;6.90;;
47429;SDS011;33181;49.246;7.372;2023-06-14T09:11:53;13.03;;;6.80;;
47429;SDS011;33181;49.246;7.372;2023-06-14T09:14:23;13.43;;;7.30;;
47429;SDS011;33181;49.246;7.372;2023-06-14T09:16:53;13.80;;;7.10;;
47429;SDS011;33181;49.246;7.372;2023-06-14T09:19:23;10.70;;;7.23;;
47429;SDS011;33181;49.246;7.372;2023-06-14T09:21:49;7.43;;;6.20;;
47429;SDS011;33181;49.246;7.372;2023-06-14T09:24:18;11.43;;;6.70;;
47429;SDS011;33181;49.246;7.372;2023-06-14T09:26:46;10.57;;;6.70;;
47429;SDS011;33181;49.246;7.372;2023-06-14T09:29:12;9.97;;;7.00;;
47429;SDS011;33181;49.246;7.372;2023-06-14T09:31:38;10.37;;;7.13;;
47429;SDS011;33181;49.246;7.372;2023-06-14T09:34:04;7.80;;;6.63;;
47429;SDS011;33181;49.246;7.372;2023-06-14T09:36:31;9.33;;;7.10;;
47429;SDS011;33181;49.246;7.372;2023-06-14T09:38:58;12.27;;;6.67;;
47429;SDS011;33181;49.246;7.372;2023-06-14T09:41:35;10.50;;;6.40;;
47429;SDS011;33181;49.246;7.372;2023-06-14T09:44:04;10.00;;;6.43;;
47429;SDS011;33181;49.246;7.372;2023-06-14T09:46:32;9.90;;;6.20;;
47429;SDS011;33181;49.246;7.372;2023-06-14T09:49:00;9.90;;;7.03;;
47429;SDS011;33181;49.246;7.372;2023-06-14T09:51:28;9.60;;;6.80;;
47429;SDS011;33181;49.246;7.372;2023-06-14T09:54:01;8.30;;;6.50;;
47429;SDS011;33181;49.246;7.372;2023-06-14T09:56:32;8.30;;;6.17;;
47429;SDS011;33181;49.246;7.372;2023-06-14T09:59:04;7.80;;;6.17;;
47429;SDS011;33181;49.246;7.372;2023-06-14T10:01:32;8.33;;;6.50;;
47429;SDS011;33181;49.246;7.372;2023-06-14T10:04:01;10.63;;;6.40;;
47429;SDS011;33181;49.246;7.372;2023-06-14T10:06:30;7.83;;;6.73;;
47429;SDS011;33181;49.246;7.372;2023-06-14T10:08:58;15.43;;;6.63;;
47429;SDS011;33181;49.246;7.372;2023-06-14T10:11:28;13.30;;;6.20;;
47429;SDS011;33181;49.246;7.372;2023-06-14T10:13:54;7.17;;;6.47;;
47429;SDS011;33181;49.246;7.372;2023-06-14T10:19:01;8.83;;;6.17;;
47429;SDS011;33181;49.246;7.372;2023-06-14T10:21:54;8.87;;;6.73;;
47429;SDS011;33181;49.246;7.372;2023-06-14T10:24:44;12.37;;;6.77;;
47429;SDS011;33181;49.246;7.372;2023-06-14T10:27:14;16.03;;;6.97;;
47429;SDS011;33181;49.246;7.372;2023-06-14T10:32:18;7.63;;;6.20;;
47429;SDS011;33181;49.246;7.372;2023-06-14T10:34:45;7.57;;;6.00;;
47429;SDS011;33181;49.246;7.372;2023-06-14T10:37:21;9.13;;;6.13;;
47429;SDS011;33181;49.246;7.372;2023-06-14T10:39:49;8.50;;;6.27;;
47429;SDS011;33181;49.246;7.372;2023-06-14T10:42:16;7.37;;;6.03;;
47429;SDS011;33181;49.246;7.372;2023-06-14T10:44:45;6.73;;;5.90;;
47429;SDS011;33181;49.246;7.372;2023-06-14T10:47:26;8.50;;;6.10;;
47429;SDS011;33181;49.246;7.372;2023-06-14T10:49:55;9.73;;;5.90;;
47429;SDS011;33181;49.246;7.372;2023-06-14T10:52:27;8.00;;;6.20;;
47429;SDS011;33181;49.246;7.372;2023-06-14T10:57:26;9.10;;;6.77;;
47429;SDS011;33181;49.246;7.372;2023-06-14T10:59:53;8.80;;;6.40;;
47429;SDS011;33181;49.246;7.372;2023-06-14T11:02:27;7.37;;;6.47;;
47429;SDS011;33181;49.246;7.372;2023-06-14T11:05:14;9.57;;;6.23;;
47429;SDS011;33181;49.246;7.372;2023-06-14T11:10:38;8.83;;;6.03;;
47429;SDS011;33181;49.246;7.372;2023-06-14T11:13:05;9.37;;;6.50;;
47429;SDS011;33181;49.246;7.372;2023-06-14T11:15:34;8.23;;;5.90;;
47429;SDS011;33181;49.246;7.372;2023-06-14T11:18:02;7.80;;;5.40;;
47429;SDS011;33181;49.246;7.372;2023-06-14T11:20:30;7.30;;;5.43;;
47429;SDS011;33181;49.246;7.372;2023-06-14T11:22:59;7.27;;;5.60;;
47429;SDS011;33181;49.246;7.372;2023-06-14T11:25:26;9.57;;;5.80;;
47429;SDS011;33181;49.246;7.372;2023-06-14T11:27:55;9.60;;;5.93;;
47429;SDS011;33181;49.246;7.372;2023-06-14T11:30:22;6.60;;;5.57;;
47429;SDS011;33181;49.246;7.372;2023-06-14T11:32:50;6.70;;;5.50;;
47429;SDS011;33181;49.246;7.372;2023-06-14T11:35:19;8.53;;;5.77;;
47429;SDS011;33181;49.246;7.372;2023-06-14T11:37:54;6.63;;;4.97;;
47429;SDS011;33181;49.246;7.372;2023-06-14T11:40:23;10.70;;;5.33;;
47429;SDS011;33181;49.246;7.372;2023-06-14T11:42:54;7.60;;;5.13;;
47429;SDS011;33181;49.246;7.372;2023-06-14T11:45:27;9.80;;;5.60;;
47429;SDS011;33181;49.246;7.372;2023-06-14T11:47:55;6.67;;;5.30;;
47429;SDS011;33181;49.246;7.372;2023-06-14T11:50:22;9.90;;;5.20;;
47429;SDS011;33181;49.246;7.372;2023-06-14T11:52:58;6.37;;;4.93;;
47429;SDS011;33181;49.246;7.372;2023-06-14T11:55:32;11.37;;;4.70;;
47429;SDS011;33181;49.246;7.372;2023-06-14T11:58:05;7.83;;;5.10;;
47429;SDS011;33181;49.246;7.372;2023-06-14T12:00:31;6.77;;;5.10;;
47429;SDS011;33181;49.246;7.372;2023-06-14T12:02:57;6.33;;;4.80;;
47429;SDS011;33181;49.246;7.372;2023-06-14T12:05:24;7.20;;;5.10;;
47429;SDS011;33181;49.246;7.372;2023-06-14T12:08:00;5.90;;;5.23;;
47429;SDS011;33181;49.246;7.372;2023-06-14T12:10:28;10.80;;;4.87;;
47429;SDS011;33181;49.246;7.372;2023-06-14T12:12:58;9.40;;;4.87;;
47429;SDS011;33181;49.246;7.372;2023-06-14T12:15:27;6.37;;;4.97;;
47429;SDS011;33181;49.246;7.372;2023-06-14T12:17:54;6.80;;;4.90;;
47429;SDS011;33181;49.246;7.372;2023-06-14T12:20:20;9.90;;;4.77;;
47429;SDS011;33181;49.246;7.372;2023-06-14T12:22:50;6.23;;;5.00;;
47429;SDS011;33181;49.246;7.372;2023-06-14T12:25:28;5.20;;;4.70;;
47429;SDS011;33181;49.246;7.372;2023-06-14T12:27:58;8.60;;;5.00;;
47429;SDS011;33181;49.246;7.372;2023-06-14T12:30:32;6.20;;;4.60;;
47429;SDS011;33181;49.246;7.372;2023-06-14T12:33:05;6.27;;;4.77;;
47429;SDS011;33181;49.246;7.372;2023-06-14T12:35:32;5.37;;;4.50;;
47429;SDS011;33181;49.246;7.372;2023-06-14T12:37:58;6.33;;;4.30;;
47429;SDS011;33181;49.246;7.372;2023-06-14T12:40:24;7.00;;;4.80;;
47429;SDS011;33181;49.246;7.372;2023-06-14T12:42:50;8.50;;;5.40;;
47429;SDS011;33181;49.246;7.372;2023-06-14T12:45:16;8.97;;;5.20;;
47429;SDS011;33181;49.246;7.372;2023-06-14T12:47:41;12.27;;;4.93;;
47429;SDS011;33181;49.246;7.372;2023-06-14T12:50:08;8.47;;;4.70;;
47429;SDS011;33181;49.246;7.372;2023-06-14T12:52:34;10.13;;;4.43;;
47429;SDS011;33181;49.246;7.372;2023-06-14T12:55:01;6.47;;;4.00;;
47429;SDS011;33181;49.246;7.372;2023-06-14T12:57:32;5.67;;;4.80;;
47429;SDS011;33181;49.246;7.372;2023-06-14T12:59:59;7.63;;;4.60;;
47429;SDS011;33181;49.246;7.372;2023-06-14T13:02:25;6.10;;;4.63;;
47429;SDS011;33181;49.246;7.372;2023-06-14T13:04:51;6.90;;;4.70;;
47429;SDS011;33181;49.246;7.372;2023-06-14T13:07:17;4.47;;;4.03;;
47429;SDS011;33181;49.246;7.372;2023-06-14T13:09:43;4.70;;;4.30;;
47429;SDS011;33181;49.246;7.372;2023-06-14T13:12:12;5.90;;;4.40;;
47429;SDS011;33181;49.246;7.372;2023-06-14T13:14:38;8.47;;;4.57;;
47429;SDS011;33181;49.246;7.372;2023-06-14T13:17:08;7.23;;;4.20;;
47429;SDS011;33181;49.246;7.372;2023-06-14T13:19:35;4.77;;;4.07;;
47429;SDS011;33181;49.246;7.372;2023-06-14T13:22:01;4.93;;;4.00;;
47429;SDS011;33181;49.246;7.372;2023-06-14T13:24:28;4.50;;;4.10;;
47429;SDS011;33181;49.246;7.372;2023-06-14T13:26:54;19.20;;;4.10;;
47429;SDS011;33181;49.246;7.372;2023-06-14T13:29:22;5.50;;;4.00;;
47429;SDS011;33181;49.246;7.372;2023-06-14T13:31:49;7.40;;;3.93;;
47429;SDS011;33181;49.246;7.372;2023-06-14T13:34:14;4.70;;;3.80;;
47429;SDS011;33181;49.246;7.372;2023-06-14T13:36:40;7.80;;;4.00;;
47429;SDS011;33181;49.246;7.372;2023-06-14T13:39:06;6.90;;;4.13;;
47429;SDS011;33181;49.246;7.372;2023-06-14T13:41:32;4.30;;;3.90;;
47429;SDS011;33181;49.246;7.372;2023-06-14T13:44:00;5.90;;;4.03;;
47429;SDS011;33181;49.246;7.372;2023-06-14T13:46:28;4.40;;;3.83;;
47429;SDS011;33181;49.246;7.372;2023-06-14T13:48:54;4.77;;;4.00;;
47429;SDS011;33181;49.246;7.372;2023-06-14T13:51:20;6.00;;;4.20;;
47429;SDS011;33181;49.246;7.372;2023-06-14T13:53:47;4.83;;;3.90;;
47429;SDS011;33181;49.246;7.372;2023-06-14T13:56:14;7.20;;;3.80;;
47429;SDS011;33181;49.246;7.372;2023-06-14T13:58:40;6.17;;;4.60;;
47429;SDS011;33181;49.246;7.372;2023-06-14T14:01:06;8.17;;;3.40;;
47429;SDS011;33181;49.246;7.372;2023-06-14T14:03:33;6.23;;;4.10;;
47429;SDS011;33181;49.246;7.372;2023-06-14T14:06:00;6.70;;;4.17;;
47429;SDS011;33181;49.246;7.372;2023-06-14T14:08:27;5.17;;;4.50;;
47429;SDS011;33181;49.246;7.372;2023-06-14T14:10:53;6.30;;;4.20;;
47429;SDS011;33181;49.246;7.372;2023-06-14T14:13:19;6.27;;;4.20;;
47429;SDS011;33181;49.246;7.372;2023-06-14T14:15:46;7.80;;;3.57;;
47429;SDS011;33181;49.246;7.372;2023-06-14T14:18:12;5.87;;;3.70;;
47429;SDS011;33181;49.246;7.372;2023-06-14T14:20:39;4.27;;;3.63;;
47429;SDS011;33181;49.246;7.372;2023-06-14T14:23:05;4.17;;;3.70;;
47429;SDS011;33181;49.246;7.372;2023-06-14T14:25:30;4.70;;;3.60;;
47429;SDS011;33181;49.246;7.372;2023-06-14T14:27:56;4.07;;;3.50;;
47429;SDS011;33181;49.246;7.372;2023-06-14T14:30:22;5.10;;;3.30;;
47429;SDS011;33181;49.246;7.372;2023-06-14T14:32:49;7.00;;;3.60;;
47429;SDS011;33181;49.246;7.372;2023-06-14T14:35:16;5.43;;;4.17;;
47429;SDS011;33181;49.246;7.372;2023-06-14T14:37:42;5.17;;;3.47;;
47429;SDS011;33181;49.246;7.372;2023-06-14T14:40:09;7.90;;;3.43;;
47429;SDS011;33181;49.246;7.372;2023-06-14T14:42:36;11.17;;;3.50;;
47429;SDS011;33181;49.246;7.372;2023-06-14T14:45:02;11.57;;;3.90;;
47429;SDS011;33181;49.246;7.372;2023-06-14T14:47:29;7.37;;;4.03;;
47429;SDS011;33181;49.246;7.372;2023-06-14T14:49:55;4.50;;;3.30;;
47429;SDS011;33181;49.246;7.372;2023-06-14T14:52:21;4.77;;;3.40;;
47429;SDS011;33181;49.246;7.372;2023-06-14T14:54:47;6.10;;;3.70;;
47429;SDS011;33181;49.246;7.372;2023-06-14T14:57:13;4.07;;;3.30;;
47429;SDS011;33181;49.246;7.372;2023-06-14T14:59:39;5.27;;;3.33;;